首页
METAR-TAF:

METAR-TAF

机场 :

迪比克, 艾奥瓦州, 美国

纬度: 42-23-52N, 经度: 090-42-13W, 海拔: 328米

当前天气观测

该预报发布于52分钟前的13:53 UTC
风速11节,风向东北
温度 20°C
湿度 78%
气压 1020 hPa
能見度: 16.1公里
天空无云

METAR: KDBQ 221353Z 05011KT 10SM CLR 20/16 A3013 RMK AO2 SLP198 T02000156 $

时间: 09:45 (14:45 UTC)

预报

该预报发布于3小时和25分钟前的11:20 UTC
预报有效从22日的 12点(UTC)到 23日的 12点(UTC)
风速7节,风向
能見度: 10公里
少量云层高于25000英尺
从 22日的 1700点(UTC)
风速10节,风向,有时为17节阵风
能見度: 10公里
少量云层高于4000英尺
从 23日的 0100点(UTC)
风速6节,风向北转西北
能見度: 10公里
天空无云

TAF: KDBQ 221120Z 2212/2312 35007KT P6SM FEW250 FM221700 01010G17KT P6SM FEW040 FM230100 34006KT P6SM SKC

超过4000个机场的气象观测和天气预报(METAR&TAF报告)。

可查询的气象台以黄色和红色小点在地图上表示。

将鼠标移到小点上方,可查看气象台名称。

然后点击查看天气观测和预报。

如需切换地图:点击带黑十字的绿色按钮放大地图;点击带横线的绿色按钮缩小地图;或者点击绿色箭头查看邻近地区的地图。


METAR-TAF: